Belleville, New Jersey
Current Conditions -  °F | °C
As of 4:54 AM on Tuesday 27 Jan 2015 (Local Time) from KTEB Reporting Station
Light Snow Light Snow  
Wind Chill:   Ceiling: 3900
Heat Index: 21°   Visibility: 3mi
Dew Point: 14°   Wind: 18mph
Humidity: 74%   Direction: 360°N
Pressure: 29.67"   Gusts: 26mph
Location:  40.79°N, 74.15°W
Report Text: KTEB 270954Z 36016G23KT 3SM -SN BLSN OVC039 M06/M10 A2967 RMK AO2 SNB53 P0000
Loading
Personal Weather Stations






























Interactive Weather Map New forecast layout! Learn more

10-Day Weather Forecast

Advertisements
Track Severe Weather on mobile